Time;durP1;ratioP1;P1;durP2;ratioP2;P2;SDS_P1;SDS_P2;PMS_P1;PMS_P2;Temp;Humidity;BMP_temperature;BMP_pressure;BME280_temperature;BME280_humidity;BME280_pressure;Samples;Min_cycle;Max_cycle;Signal;HPM_P1;HPM_P2
2023/08/22 00:01:03;;;;;;;2.50;1.53;;;22.30;99.90;;;;;;4155028;28;20202;-79
2023/08/22 00:03:05;;;;;;;4.03;1.47;;;22.20;99.90;;;;;;4160451;28;20208;-80
2023/08/22 00:05:08;;;;;;;3.37;1.60;;;22.20;99.90;;;;;;4161046;28;20264;-80
2023/08/22 00:07:10;;;;;;;2.47;1.60;;;22.20;99.90;;;;;;4158759;28;20217;-80
2023/08/22 00:09:12;;;;;;;3.50;1.80;;;22.10;99.90;;;;;;4150103;28;20257;-80
2023/08/22 00:11:14;;;;;;;3.07;1.70;;;22.10;99.90;;;;;;4159647;28;20242;-80
2023/08/22 00:13:16;;;;;;;2.90;1.67;;;22.10;99.90;;;;;;4156679;28;20211;-80
2023/08/22 00:15:18;;;;;;;2.27;1.60;;;22.10;99.90;;;;;;4159072;28;20283;-80
2023/08/22 00:17:21;;;;;;;3.73;1.53;;;22.10;99.90;;;;;;4161886;28;20305;-80
2023/08/22 00:19:23;;;;;;;5.23;1.80;;;22.00;99.90;;;;;;4162820;28;20316;-80
2023/08/22 00:21:25;;;;;;;3.90;1.40;;;22.00;99.90;;;;;;4160564;28;20304;-80
2023/08/22 00:23:28;;;;;;;2.93;1.73;;;22.00;99.90;;;;;;4159791;28;20310;-80
2023/08/22 00:25:30;;;;;;;1.83;1.40;;;22.00;99.90;;;;;;4159973;28;20227;-80
2023/08/22 00:27:31;;;;;;;3.03;1.70;;;21.90;99.90;;;;;;4163272;28;20222;-79
2023/08/22 00:29:36;;;;;;;3.07;1.60;;;21.90;99.90;;;;;;4156416;28;20235;-80
2023/08/22 00:31:38;;;;;;;2.60;1.47;;;21.90;99.90;;;;;;4161654;28;20629;-79
2023/08/22 00:33:41;;;;;;;3.17;1.50;;;21.90;99.90;;;;;;4161361;28;20203;-80
2023/08/22 00:35:43;;;;;;;2.93;1.63;;;21.90;99.90;;;;;;4162496;28;20305;-80
2023/08/22 00:37:45;;;;;;;2.77;1.47;;;21.90;99.90;;;;;;4162165;28;20212;-79
2023/08/22 00:39:46;;;;;;;4.20;1.70;;;21.90;99.90;;;;;;4165612;28;20330;-79
2023/08/22 00:41:48;;;;;;;1.83;1.50;;;21.80;99.90;;;;;;4162825;28;20727;-79
2023/08/22 00:43:50;;;;;;;3.10;1.60;;;21.80;99.90;;;;;;4166742;28;20279;-80
2023/08/22 00:45:52;;;;;;;2.40;1.43;;;21.80;99.90;;;;;;4176171;28;20204;-80
2023/08/22 00:47:54;;;;;;;2.80;1.80;;;21.80;99.90;;;;;;4171692;28;20217;-80
2023/08/22 00:50:00;;;;;;;3.63;1.50;;;21.80;99.90;;;;;;4170888;28;20376;-80
2023/08/22 00:52:03;;;;;;;2.80;1.50;;;21.80;99.90;;;;;;4175356;28;20766;-80
2023/08/22 00:54:06;;;;;;;5.20;1.50;;;21.70;99.90;;;;;;4161713;28;20243;-80
2023/08/22 00:56:08;;;;;;;2.17;1.60;;;21.70;99.90;;;;;;4159926;28;20310;-80
2023/08/22 00:58:10;;;;;;;2.47;1.60;;;21.70;99.90;;;;;;4160874;28;20617;-79
2023/08/22 01:00:13;;;;;;;4.03;1.60;;;21.70;99.90;;;;;;4162765;28;20318;-79
2023/08/22 01:02:15;;;;;;;4.07;1.70;;;21.60;99.90;;;;;;4161003;28;20239;-79
2023/08/22 01:04:17;;;;;;;3.93;1.60;;;21.60;99.90;;;;;;4162762;28;20272;-79
2023/08/22 01:06:28;;;;;;;4.40;1.50;;;21.60;99.90;;;;;;4158180;28;20221;-79
2023/08/22 01:08:34;;;;;;;2.87;1.67;;;21.60;99.90;;;;;;4164315;28;20313;-80
2023/08/22 01:10:41;;;;;;;5.37;1.70;;;21.60;99.90;;;;;;4163373;28;20230;-80
2023/08/22 01:12:48;;;;;;;4.63;2.10;;;21.50;99.90;;;;;;4167632;28;20229;-80
2023/08/22 01:14:55;;;;;;;9.27;2.97;;;21.50;99.90;;;;;;4163242;28;20203;-82
2023/08/22 01:16:59;;;;;;;15.57;4.17;;;21.50;99.90;;;;;;4163496;28;20241;-80
2023/08/22 01:19:01;;;;;;;9.67;3.67;;;21.50;99.90;;;;;;4165215;28;20237;-80
2023/08/22 01:21:05;;;;;;;7.47;2.77;;;21.50;99.90;;;;;;4165347;28;20202;-80
2023/08/22 01:23:08;;;;;;;6.83;2.60;;;21.50;99.90;;;;;;4161469;28;20213;-80
2023/08/22 01:25:11;;;;;;;4.13;2.00;;;21.50;99.90;;;;;;4164592;28;20673;-80
2023/08/22 01:27:15;;;;;;;5.60;1.90;;;21.50;99.90;;;;;;4157267;28;20318;-80
2023/08/22 01:29:23;;;;;;;5.03;1.80;;;21.50;99.90;;;;;;4158361;28;20274;-80
2023/08/22 01:31:33;;;;;;;2.10;1.50;;;21.50;99.90;;;;;;4159397;28;20249;-80
2023/08/22 01:33:39;;;;;;;3.60;1.60;;;21.50;99.90;;;;;;4161814;28;20210;-80
2023/08/22 01:35:42;;;;;;;5.50;2.00;;;21.50;99.90;;;;;;4154462;28;20222;-80
2023/08/22 01:37:45;;;;;;;3.87;1.87;;;21.50;99.90;;;;;;4161691;28;20210;-80
2023/08/22 01:39:49;;;;;;;3.20;1.63;;;21.50;99.90;;;;;;4156871;28;20237;-80
2023/08/22 01:41:51;;;;;;;3.73;1.60;;;21.50;99.90;;;;;;4155987;28;20203;-80
2023/08/22 01:43:52;;;;;;;4.17;1.90;;;21.50;99.90;;;;;;4158290;28;20211;-80
2023/08/22 01:45:54;;;;;;;3.40;2.00;;;21.50;99.90;;;;;;4164147;28;20200;-80
2023/08/22 01:47:56;;;;;;;3.00;1.80;;;21.50;99.90;;;;;;4158873;28;20221;-80
2023/08/22 01:49:58;;;;;;;2.40;1.60;;;21.40;99.90;;;;;;4155604;28;20324;-80
2023/08/22 01:52:00;;;;;;;2.27;1.50;;;21.40;99.90;;;;;;4158048;28;20344;-80
2023/08/22 01:54:02;;;;;;;2.63;1.63;;;21.40;99.90;;;;;;4158140;28;20238;-80
2023/08/22 01:56:05;;;;;;;2.57;1.67;;;21.40;99.90;;;;;;4160074;28;20306;-81
2023/08/22 01:58:10;;;;;;;5.63;1.60;;;21.40;99.90;;;;;;4155771;28;20680;-80
2023/08/22 02:00:13;;;;;;;3.60;1.90;;;21.40;99.90;;;;;;4160114;28;20242;-80
2023/08/22 02:02:15;;;;;;;2.93;1.37;;;21.40;99.90;;;;;;4166811;28;20234;-80
2023/08/22 02:04:17;;;;;;;3.87;2.00;;;21.40;99.90;;;;;;4160544;28;20225;-80
2023/08/22 02:06:19;;;;;;;3.33;1.73;;;21.40;99.90;;;;;;4166370;28;20272;-80
2023/08/22 02:08:21;;;;;;;2.67;1.57;;;21.40;99.90;;;;;;4161474;28;20218;-80
2023/08/22 02:10:23;;;;;;;2.60;1.67;;;21.30;99.90;;;;;;4163620;28;20224;-80
2023/08/22 02:12:26;;;;;;;2.77;1.60;;;21.30;99.90;;;;;;4159843;28;20322;-80
2023/08/22 02:14:28;;;;;;;4.23;1.87;;;21.30;99.90;;;;;;4162937;28;20330;-80
2023/08/22 02:16:30;;;;;;;2.00;1.53;;;21.30;99.90;;;;;;4160871;28;20689;-80
2023/08/22 02:18:32;;;;;;;3.73;1.77;;;21.30;99.90;;;;;;4155449;28;20279;-80
2023/08/22 02:20:34;;;;;;;4.17;1.60;;;21.20;99.90;;;;;;4159411;28;20266;-80
2023/08/22 02:22:40;;;;;;;2.97;1.70;;;21.20;99.90;;;;;;4157088;28;20219;-80
2023/08/22 02:24:42;;;;;;;4.27;1.87;;;21.20;99.90;;;;;;4159738;28;20711;-80
2023/08/22 02:26:45;;;;;;;4.70;1.90;;;21.20;99.90;;;;;;4159390;28;20274;-80
2023/08/22 02:28:50;;;;;;;4.13;2.07;;;21.20;99.90;;;;;;4160906;28;20238;-80
2023/08/22 02:30:55;;;;;;;5.20;2.20;;;21.10;99.90;;;;;;4161126;28;20202;-80
2023/08/22 02:32:57;;;;;;;5.13;2.20;;;21.10;99.90;;;;;;4161763;28;20270;-80
2023/08/22 02:35:03;;;;;;;3.23;1.90;;;21.10;99.90;;;;;;4165421;28;20223;-80
2023/08/22 02:37:05;;;;;;;3.17;1.90;;;21.10;99.90;;;;;;4163498;28;20230;-80
2023/08/22 02:39:07;;;;;;;3.33;1.77;;;21.10;99.90;;;;;;4156031;28;20233;-80
2023/08/22 02:41:09;;;;;;;3.20;1.77;;;21.00;99.90;;;;;;4155581;28;20218;-80
2023/08/22 02:43:11;;;;;;;3.67;1.70;;;21.00;99.90;;;;;;4163386;28;20234;-80
2023/08/22 02:45:15;;;;;;;3.83;2.03;;;21.00;99.90;;;;;;4160707;28;20248;-80
2023/08/22 02:47:16;;;;;;;4.77;1.57;;;21.00;99.90;;;;;;4160870;28;20243;-80
2023/08/22 02:49:18;;;;;;;2.87;1.43;;;20.90;99.90;;;;;;4154385;28;20242;-80
2023/08/22 02:51:19;;;;;;;3.23;1.70;;;20.90;99.90;;;;;;4161464;28;20753;-80
2023/08/22 02:53:21;;;;;;;4.80;1.73;;;20.90;99.90;;;;;;4157109;28;20222;-80
2023/08/22 02:55:23;;;;;;;2.27;1.60;;;20.90;99.90;;;;;;4161073;28;20234;-80
2023/08/22 02:57:25;;;;;;;2.97;1.80;;;20.90;99.90;;;;;;4163281;28;20281;-80
2023/08/22 02:59:27;;;;;;;3.13;1.90;;;20.90;99.90;;;;;;4162657;28;20261;-79
2023/08/22 03:01:30;;;;;;;3.30;1.50;;;20.80;99.90;;;;;;4175636;28;20214;-80
2023/08/22 03:03:32;;;;;;;3.17;1.80;;;20.80;99.90;;;;;;4170779;28;20208;-80
2023/08/22 03:05:35;;;;;;;2.73;1.80;;;20.80;99.90;;;;;;4178954;28;20205;-80
2023/08/22 03:07:37;;;;;;;4.07;2.00;;;20.80;99.90;;;;;;4168204;28;20192;-80
2023/08/22 03:09:40;;;;;;;3.33;1.70;;;20.80;99.90;;;;;;4171843;28;20231;-80
2023/08/22 03:11:42;;;;;;;3.13;1.80;;;20.80;99.90;;;;;;4168967;28;20238;-80
2023/08/22 03:13:44;;;;;;;3.57;1.70;;;20.70;99.90;;;;;;4157997;28;21518;-80
2023/08/22 03:15:47;;;;;;;3.77;1.90;;;20.80;99.90;;;;;;4161674;28;20305;-80
2023/08/22 03:17:50;;;;;;;2.27;1.77;;;20.70;99.90;;;;;;4160483;28;20217;-80
2023/08/22 03:19:52;;;;;;;3.50;1.90;;;20.70;99.90;;;;;;4152711;28;20322;-80
2023/08/22 03:21:54;;;;;;;2.87;1.50;;;20.70;99.90;;;;;;4160111;28;20298;-80
2023/08/22 03:23:55;;;;;;;4.13;1.80;;;20.70;99.90;;;;;;4160222;28;20249;-80
2023/08/22 03:25:58;;;;;;;3.20;1.83;;;20.70;99.90;;;;;;4157049;28;20213;-80
2023/08/22 03:28:00;;;;;;;5.40;2.07;;;20.70;99.90;;;;;;4152914;28;20221;-80
2023/08/22 03:30:02;;;;;;;3.83;1.80;;;20.70;99.90;;;;;;4156683;28;20230;-80
2023/08/22 03:32:04;;;;;;;4.00;2.30;;;20.70;99.90;;;;;;4159154;28;20228;-80
2023/08/22 03:34:07;;;;;;;3.40;1.90;;;20.70;99.90;;;;;;4159440;28;20223;-80
2023/08/22 03:36:09;;;;;;;3.13;1.97;;;20.70;99.90;;;;;;4154960;28;20299;-80
2023/08/22 03:38:11;;;;;;;4.33;1.97;;;20.70;99.90;;;;;;4158977;28;20255;-80
2023/08/22 03:40:13;;;;;;;4.07;1.67;;;20.70;99.90;;;;;;4152337;28;20751;-80
2023/08/22 03:42:14;;;;;;;5.70;2.00;;;20.80;99.90;;;;;;4155982;28;20210;-80
2023/08/22 03:44:16;;;;;;;3.93;2.00;;;20.70;99.90;;;;;;4156939;28;20298;-80
2023/08/22 03:46:18;;;;;;;4.00;2.07;;;20.70;99.90;;;;;;4156024;28;20628;-80
2023/08/22 03:48:20;;;;;;;3.23;2.00;;;20.60;99.90;;;;;;4156226;28;20548;-80
2023/08/22 03:50:23;;;;;;;3.40;1.87;;;20.70;99.90;;;;;;4156771;28;20258;-80
2023/08/22 03:52:26;;;;;;;2.90;2.00;;;20.60;99.90;;;;;;4159340;28;20295;-80
2023/08/22 03:54:27;;;;;;;3.03;1.83;;;20.60;99.90;;;;;;4160916;28;20317;-80
2023/08/22 03:56:29;;;;;;;4.27;2.10;;;20.60;99.90;;;;;;4158672;28;20219;-80
2023/08/22 03:58:31;;;;;;;3.53;2.17;;;20.60;99.90;;;;;;4158742;28;20216;-80
2023/08/22 04:00:33;;;;;;;4.30;1.93;;;20.60;99.90;;;;;;4159132;28;20235;-80
2023/08/22 04:02:35;;;;;;;3.83;2.40;;;20.50;99.90;;;;;;4158199;28;20219;-81
2023/08/22 04:04:37;;;;;;;3.30;2.10;;;20.50;99.90;;;;;;4158791;28;20302;-82
2023/08/22 04:06:40;;;;;;;4.67;1.90;;;20.50;99.90;;;;;;4158150;28;20238;-82
2023/08/22 04:08:42;;;;;;;2.90;2.13;;;20.50;99.90;;;;;;4165872;28;20735;-83
2023/08/22 04:10:44;;;;;;;3.57;2.00;;;20.50;99.90;;;;;;4161290;28;20298;-82
2023/08/22 04:12:46;;;;;;;5.17;2.47;;;20.50;99.90;;;;;;4161952;28;20286;-82
2023/08/22 04:14:48;;;;;;;4.60;2.30;;;20.50;99.90;;;;;;4163846;28;20211;-81
2023/08/22 04:16:50;;;;;;;4.10;2.10;;;20.50;99.90;;;;;;4162360;28;20906;-81
2023/08/22 04:18:52;;;;;;;3.00;1.90;;;20.50;99.90;;;;;;4162596;28;20699;-80
2023/08/22 04:20:54;;;;;;;3.97;2.10;;;20.50;99.90;;;;;;4159171;28;20236;-81
2023/08/22 04:22:57;;;;;;;6.63;2.30;;;20.50;99.90;;;;;;4161573;28;20314;-81
2023/08/22 04:24:59;;;;;;;5.73;1.87;;;20.40;99.90;;;;;;4162086;28;20245;-81
2023/08/22 04:27:01;;;;;;;5.57;2.17;;;20.40;99.90;;;;;;4161171;28;21006;-81
2023/08/22 04:29:03;;;;;;;3.77;2.17;;;20.40;99.90;;;;;;4159916;28;20262;-80
2023/08/22 04:31:05;;;;;;;4.80;1.90;;;20.40;99.90;;;;;;4160368;28;20598;-80
2023/08/22 04:33:07;;;;;;;4.83;2.17;;;20.30;99.90;;;;;;4163419;28;20250;-81
2023/08/22 04:35:09;;;;;;;3.67;2.13;;;20.40;99.90;;;;;;4159870;28;20338;-80
2023/08/22 04:37:11;;;;;;;3.77;2.17;;;20.30;99.90;;;;;;4157442;28;20243;-82
2023/08/22 04:39:14;;;;;;;7.00;2.40;;;20.30;99.90;;;;;;4157688;28;20318;-80
2023/08/22 04:41:17;;;;;;;4.37;2.50;;;20.30;99.90;;;;;;4157324;28;20571;-79
2023/08/22 04:43:19;;;;;;;5.30;2.27;;;20.30;99.90;;;;;;4156273;28;20219;-80
2023/08/22 04:45:21;;;;;;;5.40;2.27;;;20.30;99.90;;;;;;4162146;28;20349;-83
2023/08/22 04:47:23;;;;;;;4.50;2.20;;;20.30;99.90;;;;;;4158962;28;20211;-82
2023/08/22 04:49:25;;;;;;;4.47;2.50;;;20.30;99.90;;;;;;4158214;28;20255;-79
2023/08/22 04:51:26;;;;;;;4.40;2.27;;;20.30;99.90;;;;;;4154689;28;20246;-82
2023/08/22 04:53:28;;;;;;;4.83;2.07;;;20.30;99.90;;;;;;4161626;28;20245;-83
2023/08/22 04:55:32;;;;;;;5.87;2.30;;;20.30;99.90;;;;;;4167870;28;20245;-81
2023/08/22 04:57:34;;;;;;;4.27;2.13;;;20.30;99.90;;;;;;4165530;28;20274;-83
2023/08/22 04:59:36;;;;;;;5.10;2.60;;;20.20;99.90;;;;;;4161898;28;20291;-76
2023/08/22 05:01:38;;;;;;;5.60;2.40;;;20.30;99.90;;;;;;4162913;28;20209;-84
2023/08/22 05:03:39;;;;;;;3.70;2.43;;;20.30;99.90;;;;;;4164326;28;20231;-83
2023/08/22 05:05:41;;;;;;;5.03;2.37;;;20.30;99.90;;;;;;4169252;28;20221;-83
2023/08/22 05:07:43;;;;;;;5.23;2.40;;;20.30;99.90;;;;;;4171428;28;20240;-84
2023/08/22 05:09:45;;;;;;;5.10;2.70;;;20.30;99.90;;;;;;4169964;28;20766;-84
2023/08/22 05:11:49;;;;;;;4.43;2.30;;;20.40;99.90;;;;;;4166274;28;20227;-85
2023/08/22 05:13:51;;;;;;;3.80;2.53;;;20.30;99.90;;;;;;4171579;28;20218;-84
2023/08/22 05:15:53;;;;;;;4.23;2.40;;;20.30;99.90;;;;;;4176689;28;20218;-85
2023/08/22 05:17:55;;;;;;;3.80;2.30;;;20.30;99.90;;;;;;4174103;28;20215;-86
2023/08/22 05:19:57;;;;;;;3.37;2.37;;;20.30;99.90;;;;;;4176864;28;20227;-84
2023/08/22 05:21:59;;;;;;;3.20;2.10;;;20.30;99.90;;;;;;4186228;28;20255;-85
2023/08/22 05:24:01;;;;;;;3.97;2.30;;;20.30;99.90;;;;;;4177334;28;20208;-84
2023/08/22 05:26:03;;;;;;;4.90;2.57;;;20.30;99.90;;;;;;4185340;28;20203;-83
2023/08/22 05:28:08;;;;;;;4.43;2.43;;;20.30;99.90;;;;;;4174198;28;20230;-84
2023/08/22 05:30:10;;;;;;;3.87;2.67;;;20.30;99.90;;;;;;4170002;28;20227;-82
2023/08/22 05:32:12;;;;;;;6.40;2.70;;;20.40;99.90;;;;;;4168942;28;20262;-81
2023/08/22 05:34:14;;;;;;;5.30;2.53;;;20.40;99.90;;;;;;4167328;28;20221;-81
2023/08/22 05:36:16;;;;;;;4.97;2.80;;;20.40;99.90;;;;;;4167127;28;20278;-81
2023/08/22 05:38:18;;;;;;;4.90;2.90;;;20.40;99.90;;;;;;4166942;28;20282;-82
2023/08/22 05:40:20;;;;;;;4.73;2.80;;;20.40;99.90;;;;;;4169260;28;20244;-81
2023/08/22 05:42:23;;;;;;;4.10;2.50;;;20.40;99.90;;;;;;4169374;28;20231;-81
2023/08/22 05:44:26;;;;;;;4.17;2.63;;;20.40;99.90;;;;;;4168784;28;20275;-83
2023/08/22 05:46:28;;;;;;;5.03;2.83;;;20.50;99.90;;;;;;4169894;28;20225;-83
2023/08/22 05:48:30;;;;;;;4.77;2.83;;;20.50;99.90;;;;;;4170344;28;20214;-83
2023/08/22 05:50:32;;;;;;;7.63;3.23;;;20.50;99.90;;;;;;4172596;28;20243;-83
2023/08/22 05:52:34;;;;;;;6.63;2.90;;;20.50;99.90;;;;;;4171025;28;20230;-82
2023/08/22 05:54:37;;;;;;;6.53;3.33;;;20.50;99.90;;;;;;4170922;28;20244;-83
2023/08/22 05:56:38;;;;;;;7.83;3.50;;;20.60;99.90;;;;;;4169640;28;20208;-83
2023/08/22 05:58:40;;;;;;;6.27;3.67;;;20.60;99.90;;;;;;4173859;28;20357;-79
2023/08/22 06:00:45;;;;;;;7.20;3.70;;;20.60;99.90;;;;;;4164529;28;20215;-82
2023/08/22 06:02:47;;;;;;;6.37;3.53;;;20.60;99.90;;;;;;4168476;28;20241;-82
2023/08/22 06:04:49;;;;;;;6.70;3.67;;;20.60;99.90;;;;;;4171864;28;20275;-79
2023/08/22 06:06:50;;;;;;;6.33;3.37;;;20.60;99.90;;;;;;4167872;28;20243;-78
2023/08/22 06:08:52;;;;;;;7.97;3.80;;;20.60;99.90;;;;;;4158865;28;20229;-80
2023/08/22 06:10:55;;;;;;;7.87;3.40;;;20.60;99.90;;;;;;4163489;28;20233;-78
2023/08/22 06:12:56;;;;;;;8.57;4.43;;;20.70;99.90;;;;;;4164456;28;20264;-77
2023/08/22 06:14:58;;;;;;;6.10;3.50;;;20.70;99.90;;;;;;4155085;28;20209;-76
2023/08/22 06:17:02;;;;;;;8.53;3.80;;;20.70;99.90;;;;;;4146845;28;20294;-77
2023/08/22 06:19:04;;;;;;;5.20;3.50;;;20.70;99.90;;;;;;4154346;28;20365;-78
2023/08/22 06:21:05;;;;;;;7.10;3.60;;;20.70;99.90;;;;;;4164870;28;20286;-77
2023/08/22 06:23:07;;;;;;;7.87;4.03;;;20.80;99.90;;;;;;4158692;28;20842;-77
2023/08/22 06:25:09;;;;;;;6.63;4.10;;;20.80;99.90;;;;;;4157492;28;20244;-77
2023/08/22 06:27:11;;;;;;;9.43;4.70;;;20.80;99.90;;;;;;4159956;28;20761;-78
2023/08/22 06:29:13;;;;;;;11.17;5.40;;;20.90;99.90;;;;;;4159541;28;20565;-78
2023/08/22 06:31:15;;;;;;;8.53;4.80;;;20.90;99.90;;;;;;4156141;28;21828;-77
2023/08/22 06:33:18;;;;;;;11.87;4.67;;;21.00;99.90;;;;;;4154662;28;20724;-79
2023/08/22 06:35:20;;;;;;;7.63;4.57;;;21.10;99.90;;;;;;4158768;28;20217;-77
2023/08/22 06:37:22;;;;;;;9.30;4.83;;;21.20;99.90;;;;;;4153749;28;20697;-78
2023/08/22 06:39:24;;;;;;;6.43;4.40;;;21.30;99.90;;;;;;4154800;28;20600;-77
2023/08/22 06:41:26;;;;;;;8.20;4.93;;;21.40;99.90;;;;;;4158694;28;20253;-78
2023/08/22 06:43:28;;;;;;;6.00;4.67;;;21.40;99.90;;;;;;4151349;28;20216;-78
2023/08/22 06:45:30;;;;;;;9.87;4.87;;;21.40;99.90;;;;;;4159130;28;20233;-77
2023/08/22 06:47:32;;;;;;;7.33;4.87;;;21.40;99.90;;;;;;4158558;28;20247;-78
2023/08/22 06:49:35;;;;;;;8.07;4.40;;;21.40;99.90;;;;;;4159605;28;20317;-77
2023/08/22 06:51:37;;;;;;;7.57;4.20;;;21.40;99.90;;;;;;4159988;28;20238;-78
2023/08/22 06:53:39;;;;;;;8.23;4.70;;;21.40;99.90;;;;;;4159843;28;20640;-77
2023/08/22 06:55:41;;;;;;;11.20;5.37;;;21.40;99.90;;;;;;4149134;28;20219;-78
2023/08/22 06:57:43;;;;;;;8.50;4.73;;;21.50;99.90;;;;;;4161187;28;20217;-78
2023/08/22 06:59:45;;;;;;;10.50;4.93;;;21.50;99.90;;;;;;4157319;28;20228;-78
2023/08/22 07:01:47;;;;;;;8.03;4.17;;;21.50;99.90;;;;;;4154444;28;20317;-78
2023/08/22 07:03:49;;;;;;;13.13;5.40;;;21.60;99.90;;;;;;4157766;28;20292;-78
2023/08/22 07:05:53;;;;;;;7.90;4.87;;;21.60;99.90;;;;;;4157520;28;20269;-78
2023/08/22 07:07:55;;;;;;;10.93;5.47;;;21.60;99.90;;;;;;4151543;28;20211;-78
2023/08/22 07:09:57;;;;;;;6.57;4.33;;;21.60;99.90;;;;;;4152976;28;20254;-78
2023/08/22 07:11:59;;;;;;;8.77;5.20;;;21.60;99.90;;;;;;4154420;28;20598;-78
2023/08/22 07:14:01;;;;;;;7.43;4.60;;;21.60;99.90;;;;;;4158927;28;20229;-79
2023/08/22 07:16:03;;;;;;;10.17;4.90;;;21.60;99.90;;;;;;4157597;28;20219;-80
2023/08/22 07:18:05;;;;;;;9.57;5.10;;;21.70;99.90;;;;;;4156936;28;20491;-79
2023/08/22 07:20:08;;;;;;;8.30;4.50;;;21.70;99.90;;;;;;4154889;28;20242;-79
2023/08/22 07:22:11;;;;;;;9.67;4.70;;;21.70;99.90;;;;;;4152825;28;20285;-78
2023/08/22 07:24:14;;;;;;;9.03;4.27;;;21.70;99.90;;;;;;4149992;28;20207;-76
2023/08/22 07:26:16;;;;;;;8.30;4.67;;;21.80;99.90;;;;;;4154487;28;20218;-79
2023/08/22 07:28:18;;;;;;;12.00;4.50;;;21.80;99.90;;;;;;4155302;28;20301;-79
2023/08/22 07:30:19;;;;;;;9.23;4.93;;;21.80;99.90;;;;;;4162305;28;20280;-79
2023/08/22 07:32:21;;;;;;;9.10;4.40;;;21.80;99.90;;;;;;4158382;28;21061;-79
2023/08/22 07:34:23;;;;;;;13.10;4.97;;;21.90;99.90;;;;;;4153171;28;20230;-79
2023/08/22 07:36:25;;;;;;;6.27;4.20;;;21.90;99.90;;;;;;4159682;28;20644;-79
2023/08/22 07:38:29;;;;;;;8.67;4.50;;;21.90;99.90;;;;;;4162549;28;20280;-78
2023/08/22 07:40:32;;;;;;;8.60;4.50;;;21.90;99.90;;;;;;4158219;28;20257;-78
2023/08/22 07:42:35;;;;;;;8.27;4.43;;;22.00;99.90;;;;;;4157343;28;20226;-79
2023/08/22 07:44:37;;;;;;;6.80;4.63;;;22.00;99.90;;;;;;4154257;28;20315;-79
2023/08/22 07:46:39;;;;;;;6.80;4.53;;;22.00;99.90;;;;;;4153429;28;20667;-78
2023/08/22 07:48:41;;;;;;;7.67;4.53;;;22.00;99.90;;;;;;4157586;28;20234;-79
2023/08/22 07:50:42;;;;;;;7.77;4.40;;;22.00;99.90;;;;;;4152237;28;20250;-79
2023/08/22 07:52:44;;;;;;;6.83;4.23;;;22.00;99.90;;;;;;4155566;28;20281;-79
2023/08/22 07:54:48;;;;;;;6.03;4.00;;;22.10;99.90;;;;;;4158325;28;20381;-79
2023/08/22 07:56:50;;;;;;;9.97;4.17;;;22.10;99.90;;;;;;4157780;28;20207;-79
2023/08/22 07:58:52;;;;;;;13.03;4.60;;;22.10;99.90;;;;;;4160140;28;20217;-79
2023/08/22 08:00:54;;;;;;;7.33;4.30;;;22.20;99.90;;;;;;4159111;28;20293;-79
2023/08/22 08:02:55;;;;;;;7.97;4.07;;;22.20;99.90;;;;;;4150143;28;20227;-78
2023/08/22 08:04:58;;;;;;;7.20;4.00;;;22.30;99.90;;;;;;4153647;28;20255;-78
2023/08/22 08:07:00;;;;;;;9.93;4.43;;;22.30;99.90;;;;;;4154922;28;20242;-77
2023/08/22 08:09:04;;;;;;;9.40;4.30;;;22.40;99.90;;;;;;4153206;28;20852;-78
2023/08/22 08:11:07;;;;;;;11.13;4.97;;;22.40;99.90;;;;;;4152517;28;20721;-77
2023/08/22 08:13:09;;;;;;;7.47;4.23;;;22.40;99.90;;;;;;4152416;28;20314;-77
2023/08/22 08:15:11;;;;;;;10.23;4.20;;;22.40;99.90;;;;;;4156281;28;20213;-76
2023/08/22 08:17:12;;;;;;;9.97;4.20;;;22.50;99.90;;;;;;4159832;28;20309;-78
2023/08/22 08:19:16;;;;;;;11.53;4.33;;;22.50;99.90;;;;;;4150758;28;20231;-78
2023/08/22 08:21:18;;;;;;;7.67;4.20;;;22.60;99.90;;;;;;4151305;28;20584;-77
2023/08/22 08:23:20;;;;;;;8.60;3.90;;;22.60;99.90;;;;;;4156749;28;20243;-77
2023/08/22 08:25:22;;;;;;;10.17;4.27;;;22.70;99.90;;;;;;4156081;28;20211;-77
2023/08/22 08:27:25;;;;;;;6.43;3.50;;;22.70;99.90;;;;;;4158093;28;20683;-77
2023/08/22 08:29:26;;;;;;;9.80;4.10;;;22.70;99.90;;;;;;4155193;28;20242;-77
2023/08/22 08:31:28;;;;;;;7.10;3.47;;;22.80;99.90;;;;;;4158727;28;20212;-77
2023/08/22 08:33:30;;;;;;;6.37;3.50;;;22.80;99.90;;;;;;4160904;28;20258;-77
2023/08/22 08:35:32;;;;;;;5.07;3.00;;;22.80;99.90;;;;;;4160479;28;20885;-77
2023/08/22 08:37:34;;;;;;;5.13;3.40;;;22.80;99.90;;;;;;4157812;28;20234;-77
2023/08/22 08:39:36;;;;;;;9.70;4.13;;;22.80;99.90;;;;;;4161267;28;20727;-77
2023/08/22 08:41:43;;;;;;;10.03;4.23;;;22.90;99.90;;;;;;4159016;28;20214;-77
2023/08/22 08:43:47;;;;;;;8.33;3.70;;;22.90;99.90;;;;;;4155193;28;20278;-77
2023/08/22 08:45:50;;;;;;;10.97;3.73;;;23.00;99.90;;;;;;4162171;28;20230;-78
2023/08/22 08:47:53;;;;;;;4.93;3.40;;;23.00;99.90;;;;;;4154989;28;20211;-78
2023/08/22 08:49:56;;;;;;;7.17;3.60;;;23.00;99.90;;;;;;4155546;28;20254;-78
2023/08/22 08:52:00;;;;;;;8.30;3.70;;;23.10;99.90;;;;;;4154889;28;20565;-78
2023/08/22 08:54:03;;;;;;;8.40;3.67;;;23.10;99.90;;;;;;4156724;28;20315;-78
2023/08/22 08:56:09;;;;;;;6.10;3.50;;;23.20;99.90;;;;;;4160094;28;20949;-78
2023/08/22 08:58:11;;;;;;;6.90;3.70;;;23.20;99.90;;;;;;4157470;28;21094;-77
2023/08/22 09:00:16;;;;;;;9.97;4.10;;;23.30;99.90;;;;;;4155475;28;20231;-78
2023/08/22 09:02:18;;;;;;;7.33;4.00;;;23.30;99.90;;;;;;4154852;28;20723;-78
2023/08/22 09:04:20;;;;;;;8.70;3.70;;;23.30;99.90;;;;;;4159801;28;20253;-78
2023/08/22 09:06:22;;;;;;;9.70;3.90;;;23.40;99.90;;;;;;4156189;28;20211;-78
2023/08/22 09:08:24;;;;;;;7.90;4.03;;;23.40;99.90;;;;;;4156086;28;20250;-78
2023/08/22 09:10:34;;;;;;;8.07;3.83;;;23.40;99.90;;;;;;4158614;28;20240;-78
2023/08/22 09:12:37;;;;;;;9.30;3.97;;;23.50;99.90;;;;;;4157432;28;20219;-78
2023/08/22 09:14:42;;;;;;;7.40;3.40;;;23.60;99.90;;;;;;4156891;28;20231;-78
2023/08/22 09:16:45;;;;;;;6.93;3.20;;;23.70;99.90;;;;;;4158065;28;20238;-78
2023/08/22 09:18:47;;;;;;;5.43;3.07;;;23.70;99.90;;;;;;4153855;28;20295;-78
2023/08/22 09:20:49;;;;;;;8.43;3.20;;;23.90;99.90;;;;;;4154707;28;20298;-78
2023/08/22 09:22:51;;;;;;;9.73;3.10;;;24.00;99.90;;;;;;4155511;28;20762;-78
2023/08/22 09:24:54;;;;;;;6.97;3.27;;;24.10;99.90;;;;;;4151154;28;20214;-78
2023/08/22 09:26:56;;;;;;;6.37;3.07;;;24.30;99.90;;;;;;4159029;28;20308;-78
2023/08/22 09:28:57;;;;;;;7.97;3.60;;;24.40;99.90;;;;;;4155113;28;20313;-78
2023/08/22 09:30:59;;;;;;;8.17;3.40;;;24.40;99.90;;;;;;4154174;28;20301;-78
2023/08/22 09:33:02;;;;;;;9.90;3.37;;;24.50;99.90;;;;;;4157693;28;20583;-77
2023/08/22 09:35:06;;;;;;;6.00;3.17;;;24.40;99.90;;;;;;4154587;28;20234;-78
2023/08/22 09:37:08;;;;;;;5.30;3.00;;;24.40;99.90;;;;;;4160898;28;20247;-78
2023/08/22 09:39:13;;;;;;;7.13;3.63;;;24.40;99.90;;;;;;4157564;28;20231;-78
2023/08/22 09:41:22;;;;;;;7.93;3.20;;;24.40;99.90;;;;;;4160002;28;20239;-78
2023/08/22 09:43:24;;;;;;;8.20;3.10;;;24.50;99.90;;;;;;4154432;28;20225;-78
2023/08/22 09:45:29;;;;;;;10.37;3.00;;;24.60;99.90;;;;;;4157641;28;20257;-78
2023/08/22 09:47:32;;;;;;;7.07;3.40;;;24.70;99.90;;;;;;4162881;28;20226;-77
2023/08/22 09:49:37;;;;;;;6.83;3.77;;;24.80;99.90;;;;;;4171146;28;20292;-77
2023/08/22 09:51:40;;;;;;;9.63;3.87;;;24.80;99.90;;;;;;4173264;28;20242;-78
2023/08/22 09:53:43;;;;;;;5.70;3.70;;;25.00;99.90;;;;;;4175038;28;20234;-77
2023/08/22 09:55:46;;;;;;;7.23;4.13;;;25.00;99.90;;;;;;4174323;28;20274;-77
2023/08/22 09:57:49;;;;;;;10.93;3.53;;;25.00;99.90;;;;;;4180478;28;20253;-76
2023/08/22 09:59:51;;;;;;;9.03;4.07;;;25.00;99.90;;;;;;4168901;28;20322;-77
2023/08/22 10:01:54;;;;;;;6.53;3.83;;;25.10;99.90;;;;;;4161104;28;20294;-77
2023/08/22 10:03:56;;;;;;;9.17;4.07;;;25.10;99.90;;;;;;4153764;28;20256;-77
2023/08/22 10:06:00;;;;;;;9.27;3.73;;;25.20;99.90;;;;;;4155641;28;20218;-77
2023/08/22 10:08:02;;;;;;;5.43;3.57;;;25.20;99.90;;;;;;4158037;28;20210;-78
2023/08/22 10:10:06;;;;;;;5.80;3.77;;;25.30;99.90;;;;;;4157296;28;20251;-78
2023/08/22 10:12:11;;;;;;;7.73;3.87;;;25.30;99.90;;;;;;4157377;28;20215;-78
2023/08/22 10:14:18;;;;;;;9.70;3.60;;;25.40;99.90;;;;;;4164113;28;20824;-78
2023/08/22 10:16:21;;;;;;;7.17;3.80;;;25.50;99.90;;;;;;4159585;28;20211;-78
2023/08/22 10:18:24;;;;;;;9.83;4.77;;;25.60;99.90;;;;;;4161782;28;20302;-78
2023/08/22 10:20:26;;;;;;;8.13;3.83;;;25.80;99.90;;;;;;4157083;28;20236;-78
2023/08/22 10:22:33;;;;;;;11.87;4.10;;;25.90;99.90;;;;;;4163862;28;20277;-78
2023/08/22 10:24:35;;;;;;;8.90;4.33;;;26.10;99.90;;;;;;4161069;28;20299;-78
2023/08/22 10:26:48;;;;;;;8.27;4.03;;;26.20;99.90;;;;;;4163614;28;20235;-78
2023/08/22 10:29:15;;;;;;;7.23;4.20;;;26.30;99.90;;;;;;4151755;28;20199;-78
2023/08/22 10:31:17;;;;;;;10.63;4.27;;;26.50;99.90;;;;;;4154135;28;20222;-78
2023/08/22 10:33:28;;;;;;;8.07;4.17;;;26.60;99.90;;;;;;4159734;28;20310;-78
2023/08/22 10:35:30;;;;;;;7.33;3.83;;;26.70;99.90;;;;;;4160152;28;20211;-78
2023/08/22 10:37:32;;;;;;;5.60;3.47;;;26.60;99.90;;;;;;4162668;28;20252;-78